Aeroporto :
LOGIN :

Iscrizione | Disclaimer

   EN    FR    IT 

 










Sommario :    VFR   VFR Marginale   IFR   IFR Intensivo   IFR Molto Intensivo
Visibilità : 
Base nubi : 
>= 8 km
>= 3000ft
5 / 8 km
1000 / 3000 ft
1500m / 5 km
500 / 1000 ft
800 / 1500m
200 / 500 ft
< 800m
< 200 ft
Simboli :   Temporali  Nebbia  Neve Forte  Precipitazioni Forti  Vento > 20 kt
SIGMETs :   Varie  Temporali  Ghiacco  Turbolenza  Onda orograficha  Ceneri Vulcaniche







- Altitudine del aeroporto : 290 ft
- Codice IATA : LAI
- Carte del aeroporto


LFRO - Lannion

ULTIMO METAR :
  • 252100Z AUTO VRB03KT CAVOK 16/15 Q1021

METARs OBSOLETI :
  • 252030Z AUTO VRB02KT CAVOK 17/15 Q1021
  • 252000Z AUTO 02003KT 340V090 CAVOK 17/15 Q1021
  • 251930Z AUTO 02004KT 350V060 CAVOK 17/15 Q1021
  • 251900Z AUTO 02004KT 350V060 CAVOK 18/14 Q1021
  • 251830Z AUTO 02006KT 360V060 CAVOK 18/14 Q1020

Previsioni scadute.
Nessun NOTAM noto per questo aeroporto.
1 SIGMET conosciuto per la FIR Brest (LFRR) :
 
Temporali affogati
LFRR SIGMET 1 VALID 251900/252200 LFPW
LFRR BREST FIR/UIR EMBD TS OBS WI N4400 W00345 - N4415 W00430 - N4500 W00345 - N4400 W00345 TOP FL320 MOV NE 30KT INTSF=



MetMap, La meteo Aeronautica in un colpo d'occhio ! - Copyright ORBIFLY Dicembre 2007 - Disclaimer

ORBIFLY MET'MAP TEAM :

Programmazione e sviluppo : Alexandra Zaïnal
Concezione e sviluppo : Baudouin d'Aumeries
Co-Programmazione e sviluppo : Marc-Olivier Méhu
Supporto tecnico e logistico : Manuel Goepfert
Aiuto per la traduzione : Arnaldo La Scala

Contatto : metmap@orbifly.com




FONTI E CREDITI :

   NOAA